Time;durP1;ratioP1;P1;durP2;ratioP2;P2;SDS_P1;SDS_P2;PMS_P1;PMS_P2;Temp;Humidity;BMP_temperature;BMP_pressure;BME280_temperature;BME280_humidity;BME280_pressure;Samples;Min_cycle;Max_cycle;Signal;HPM_P1;HPM_P2
2021/07/25 00:00:58;;;;;;;18.30;8.03;;;;;;;18.37;62.45;99906.48;125661;1092;22801;-59
2021/07/25 00:03:29;;;;;;;16.50;8.30;;;;;;;18.35;62.51;99911.91;125668;1093;22790;-59
2021/07/25 00:06:01;;;;;;;18.00;9.00;;;;;;;18.34;62.23;99913.23;125919;1093;26486;-59
2021/07/25 00:08:34;;;;;;;18.45;9.40;;;;;;;18.35;62.81;99911.91;125788;1093;27157;-59
2021/07/25 00:11:05;;;;;;;20.43;10.33;;;;;;;18.32;62.71;99915.07;126032;1093;22851;-59
2021/07/25 00:13:40;;;;;;;19.50;9.05;;;;;;;18.32;62.87;99912.25;125735;1093;22824;-59
2021/07/25 00:16:11;;;;;;;17.75;10.15;;;;;;;18.29;62.92;99910.52;125726;1093;22893;-59
2021/07/25 00:18:43;;;;;;;19.30;9.20;;;;;;;18.26;63.01;99903.11;125717;1093;26268;-59
2021/07/25 00:21:15;;;;;;;17.10;8.95;;;;;;;18.22;63.10;99911.91;125780;1093;22850;-59
2021/07/25 00:23:49;;;;;;;19.55;8.80;;;;;;;18.22;63.50;99897.02;125931;1093;22777;-59
2021/07/25 00:26:26;;;;;;;18.27;8.93;;;;;;;18.20;63.24;99894.73;125691;1093;25649;-59
2021/07/25 00:28:57;;;;;;;20.50;9.55;;;;;;;18.20;63.36;99894.73;125683;1092;24166;-59
2021/07/25 00:31:29;;;;;;;19.10;9.65;;;;;;;18.19;63.38;99896.02;125960;1093;22776;-59
2021/07/25 00:34:02;;;;;;;21.05;9.55;;;;;;;18.20;63.94;99891.14;125753;1093;22834;-59
2021/07/25 00:36:33;;;;;;;20.00;9.65;;;;;;;18.20;63.64;99883.44;125868;1093;24587;-59
2021/07/25 00:39:07;;;;;;;20.40;10.50;;;;;;;18.20;64.01;99877.02;125778;1093;22852;-59
2021/07/25 00:41:39;;;;;;;23.65;9.95;;;;;;;18.20;63.87;99874.19;125852;1093;22803;-59
2021/07/25 00:44:14;;;;;;;18.40;9.55;;;;;;;18.21;64.09;99867.22;125704;1093;22829;-59
2021/07/25 00:46:47;;;;;;;17.25;9.10;;;;;;;18.20;64.00;99865.71;125890;1093;22797;-59
2021/07/25 00:49:18;;;;;;;18.55;9.70;;;;;;;18.20;64.23;99863.66;125717;1093;22794;-59
2021/07/25 00:51:49;;;;;;;18.55;9.80;;;;;;;18.20;64.33;99837.45;125783;1093;22877;-59
2021/07/25 00:54:21;;;;;;;18.35;8.40;;;;;;;18.16;64.57;99846.27;125721;1093;25852;-59
2021/07/25 00:56:53;;;;;;;19.60;9.70;;;;;;;18.15;64.74;99841.91;125772;1094;22856;-59
2021/07/25 00:59:24;;;;;;;19.65;10.75;;;;;;;18.15;64.59;99839.08;125675;1092;26220;-59
2021/07/25 01:01:56;;;;;;;21.20;10.05;;;;;;;18.15;64.68;99839.08;125783;1093;22797;-59
2021/07/25 01:04:40;;;;;;;21.35;9.70;;;;;;;18.14;64.80;99836.80;125721;1093;22831;-59
2021/07/25 01:07:21;;;;;;;21.30;9.40;;;;;;;18.15;65.30;99838.31;125888;1093;22884;-59
2021/07/25 01:10:00;;;;;;;21.50;11.00;;;;;;;18.15;65.07;99835.48;125792;1093;22770;-59
2021/07/25 01:12:38;;;;;;;22.40;10.60;;;;;;;18.15;65.23;99832.66;125748;1093;22803;-59
2021/07/25 01:15:13;;;;;;;22.75;10.20;;;;;;;18.14;65.60;99834.75;125733;1093;27197;-58
2021/07/25 01:17:45;;;;;;;21.45;9.50;;;;;;;18.11;65.63;99827.34;125950;1093;22849;-59
2021/07/25 01:20:16;;;;;;;22.55;10.30;;;;;;;18.12;65.78;99826.05;125767;1093;22780;-59
2021/07/25 01:22:50;;;;;;;20.50;10.60;;;;;;;18.13;65.83;99813.43;125767;1093;28416;-59
2021/07/25 01:25:24;;;;;;;20.60;10.20;;;;;;;18.14;65.43;99802.90;125874;1093;22864;-59
2021/07/25 01:27:59;;;;;;;19.75;9.35;;;;;;;18.14;65.30;99802.90;125993;1093;22803;-59
2021/07/25 01:30:33;;;;;;;19.75;9.70;;;;;;;18.14;66.03;99806.49;125904;1093;22800;-59
2021/07/25 01:33:09;;;;;;;19.15;9.40;;;;;;;18.13;66.08;99802.13;125955;1092;22910;-59
2021/07/25 01:35:43;;;;;;;20.80;10.43;;;;;;;18.11;65.62;99799.09;125817;1093;22777;-59
2021/07/25 01:38:15;;;;;;;19.60;10.05;;;;;;;18.09;65.90;99793.22;125679;1093;27157;-59
2021/07/25 01:41:03;;;;;;;23.25;10.40;;;;;;;18.07;65.92;99784.53;125878;1091;22767;-59
2021/07/25 01:43:36;;;;;;;18.95;9.80;;;;;;;18.05;66.37;99798.44;125808;1093;22840;-59
2021/07/25 01:46:08;;;;;;;21.27;9.83;;;;;;;18.04;66.08;99796.16;125848;1093;22793;-59
2021/07/25 01:48:39;;;;;;;19.70;11.40;;;;;;;18.03;66.10;99791.80;125863;1093;22794;-59
2021/07/25 01:51:13;;;;;;;19.77;9.90;;;;;;;18.01;66.35;99797.99;125773;1093;22767;-59
2021/07/25 01:53:45;;;;;;;21.70;10.13;;;;;;;17.99;66.50;99800.59;125973;1093;22800;-59
2021/07/25 01:56:16;;;;;;;19.80;10.50;;;;;;;17.97;66.19;99797.55;125729;1093;27623;-59
2021/07/25 01:58:48;;;;;;;19.60;9.70;;;;;;;17.95;66.03;99797.34;125772;1093;22797;-58
2021/07/25 02:01:20;;;;;;;17.90;9.70;;;;;;;17.94;66.29;99801.45;125774;1093;22797;-58
2021/07/25 02:03:51;;;;;;;19.85;10.00;;;;;;;17.93;66.04;99793.52;125839;1093;24431;-58
2021/07/25 02:06:23;;;;;;;18.70;10.20;;;;;;;17.92;66.18;99797.66;125828;1093;22801;-58
2021/07/25 02:08:54;;;;;;;18.80;10.60;;;;;;;17.90;66.27;99801.01;125845;1093;22767;-58
2021/07/25 02:11:26;;;;;;;23.15;11.05;;;;;;;17.88;66.52;99797.97;125749;1093;25852;-58
2021/07/25 02:13:57;;;;;;;20.57;10.87;;;;;;;17.86;66.51;99794.18;125697;1093;22800;-59
2021/07/25 02:16:29;;;;;;;22.05;10.00;;;;;;;17.83;66.47;99796.02;126285;1091;22771;-60
2021/07/25 02:19:00;;;;;;;21.75;11.30;;;;;;;17.79;66.82;99798.40;125638;1092;22767;-59
2021/07/25 02:21:32;;;;;;;21.80;10.70;;;;;;;17.77;66.39;99798.17;125767;1093;22770;-60
2021/07/25 02:24:04;;;;;;;20.80;11.90;;;;;;;17.74;66.90;99802.06;125866;1093;23256;-60
2021/07/25 02:26:36;;;;;;;24.05;11.65;;;;;;;17.70;67.07;99801.63;125796;1096;22800;-62
2021/07/25 02:29:07;;;;;;;24.10;11.55;;;;;;;17.67;66.98;99808.36;125767;1094;27639;-61
2021/07/25 02:31:39;;;;;;;20.90;10.90;;;;;;;17.62;67.17;99809.20;125825;1093;22717;-60
2021/07/25 02:34:11;;;;;;;23.85;10.40;;;;;;;17.59;67.01;99805.39;125732;1092;22880;-60
2021/07/25 02:36:42;;;;;;;19.10;10.30;;;;;;;17.58;67.01;99803.11;125753;1093;22794;-61
2021/07/25 02:39:14;;;;;;;22.00;11.40;;;;;;;17.55;66.96;99807.00;125758;1092;22778;-60
2021/07/25 02:41:46;;;;;;;19.35;10.40;;;;;;;17.50;67.24;99805.05;125787;1093;22770;-60
2021/07/25 02:44:17;;;;;;;21.65;10.80;;;;;;;17.46;67.23;99807.39;125766;1093;22806;-60
2021/07/25 02:46:49;;;;;;;22.75;11.00;;;;;;;17.42;67.56;99806.94;125653;1093;26960;-60
2021/07/25 02:49:20;;;;;;;19.85;10.75;;;;;;;17.38;67.20;99800.84;125655;1093;22824;-60
2021/07/25 02:51:53;;;;;;;20.20;10.55;;;;;;;17.35;67.18;99801.91;125844;1093;22814;-60
2021/07/25 02:54:25;;;;;;;20.77;10.27;;;;;;;17.31;67.12;99796.58;125781;1093;22906;-61
2021/07/25 02:56:56;;;;;;;21.30;11.20;;;;;;;17.29;67.67;99802.00;125806;1093;22864;-62
2021/07/25 02:59:28;;;;;;;20.00;10.95;;;;;;;17.26;67.34;99791.01;125784;1093;22767;-60
2021/07/25 03:02:00;;;;;;;22.10;11.60;;;;;;;17.21;67.69;99792.64;125731;1093;22865;-60
2021/07/25 03:04:32;;;;;;;21.50;12.05;;;;;;;17.17;67.74;99788.59;125768;1093;22770;-62
2021/07/25 03:07:03;;;;;;;20.35;11.60;;;;;;;17.12;68.25;99783.78;125833;1093;22853;-60
2021/07/25 03:09:36;;;;;;;21.95;10.90;;;;;;;17.08;68.13;99797.44;125744;1093;22767;-61
2021/07/25 03:12:09;;;;;;;26.90;13.35;;;;;;;17.01;68.49;99787.53;125706;1092;22797;-60
2021/07/25 03:14:40;;;;;;;26.25;13.85;;;;;;;16.98;68.20;99789.38;125830;1093;22777;-59
2021/07/25 03:17:14;;;;;;;24.35;12.55;;;;;;;16.98;67.86;99788.61;125735;1093;22794;-59
2021/07/25 03:19:45;;;;;;;23.50;12.05;;;;;;;16.96;68.27;99786.34;125744;1093;22791;-60
2021/07/25 03:22:16;;;;;;;20.45;11.45;;;;;;;16.97;68.17;99785.02;125705;1093;22770;-60
2021/07/25 03:24:48;;;;;;;22.33;11.10;;;;;;;16.97;68.48;99790.66;125772;1093;22779;-60
2021/07/25 03:27:19;;;;;;;23.10;11.47;;;;;;;16.97;68.42;99787.84;125814;1093;22927;-60
2021/07/25 03:29:51;;;;;;;22.85;11.65;;;;;;;16.95;68.65;99790.44;125742;1093;22770;-60
2021/07/25 03:32:23;;;;;;;22.00;11.20;;;;;;;16.96;68.51;99789.16;125766;1093;22861;-60
2021/07/25 03:34:54;;;;;;;20.60;10.90;;;;;;;16.97;68.57;99792.71;125735;1093;22811;-60
2021/07/25 03:37:26;;;;;;;22.35;12.35;;;;;;;16.97;68.82;99796.30;125797;1093;22803;-60
2021/07/25 03:39:57;;;;;;;31.60;16.95;;;;;;;16.97;68.88;99798.35;125730;1093;23835;-60
2021/07/25 03:42:29;;;;;;;40.50;22.75;;;;;;;16.98;68.52;99800.66;125713;1093;25874;-62
2021/07/25 03:45:01;;;;;;;61.30;41.60;;;;;;;16.99;69.00;99792.94;125767;1093;22722;-60
2021/07/25 03:47:33;;;;;;;68.60;47.15;;;;;;;16.99;68.99;99788.06;125854;1093;24595;-60
2021/07/25 03:50:05;;;;;;;37.10;24.80;;;;;;;16.98;69.69;99792.20;125613;1093;26648;-60
2021/07/25 03:52:38;;;;;;;30.75;20.80;;;;;;;16.97;69.50;99796.30;125500;1093;26559;-60
2021/07/25 03:55:12;;;;;;;27.80;18.50;;;;;;;16.97;69.92;99787.84;125631;1093;22856;-60
2021/07/25 03:57:44;;;;;;;24.25;15.30;;;;;;;16.98;70.12;99791.43;125761;1093;22795;-60
2021/07/25 04:00:17;;;;;;;25.85;15.10;;;;;;;16.99;69.96;99793.70;125743;1093;22785;-61
2021/07/25 04:02:48;;;;;;;25.53;15.07;;;;;;;17.03;70.22;99806.75;125869;1093;22834;-60
2021/07/25 04:05:20;;;;;;;27.30;15.90;;;;;;;17.05;70.21;99819.00;125777;1093;22806;-59
2021/07/25 04:07:52;;;;;;;30.17;18.20;;;;;;;17.07;70.30;99815.67;125746;1093;24507;-59
2021/07/25 04:10:25;;;;;;;26.35;16.90;;;;;;;17.10;70.19;99815.36;125677;1093;22770;-60
2021/07/25 04:12:56;;;;;;;26.70;15.70;;;;;;;17.13;69.99;99819.17;125899;1093;22779;-60
2021/07/25 04:15:28;;;;;;;27.00;15.50;;;;;;;17.14;70.80;99826.32;125673;1093;22895;-60
2021/07/25 04:18:00;;;;;;;25.30;14.70;;;;;;;17.14;70.90;99821.45;125724;1093;22787;-60
2021/07/25 04:20:31;;;;;;;30.00;17.95;;;;;;;17.19;71.45;99819.85;125703;1092;24174;-60
2021/07/25 04:23:03;;;;;;;37.10;20.25;;;;;;;17.23;71.69;99823.13;125725;1093;22771;-60
2021/07/25 04:25:35;;;;;;;44.30;26.15;;;;;;;17.23;71.42;99829.53;125633;1093;22775;-61
2021/07/25 04:28:08;;;;;;;48.85;29.20;;;;;;;17.27;71.36;99815.11;125624;1093;22794;-62
2021/07/25 04:30:41;;;;;;;38.55;21.30;;;;;;;17.36;71.41;99820.38;125648;1093;22797;-59
2021/07/25 04:33:15;;;;;;;32.15;16.35;;;;;;;17.43;71.37;99819.73;125633;1093;22765;-59
2021/07/25 04:35:48;;;;;;;27.30;14.80;;;;;;;17.51;71.55;99818.61;125737;1093;24474;-60
2021/07/25 04:38:21;;;;;;;24.60;14.35;;;;;;;17.61;71.36;99819.72;125830;1093;22777;-61
2021/07/25 04:40:57;;;;;;;24.60;13.45;;;;;;;17.71;71.64;99817.28;125917;1093;22794;-62
2021/07/25 04:43:32;;;;;;;25.65;13.30;;;;;;;17.83;71.33;99812.19;125686;1093;22806;-60
2021/07/25 04:46:10;;;;;;;24.50;14.20;;;;;;;17.93;71.76;99813.30;125647;1093;22803;-60
2021/07/25 04:48:51;;;;;;;24.90;14.17;;;;;;;18.03;71.85;99806.69;125737;1093;22844;-60
2021/07/25 04:51:24;;;;;;;21.70;12.90;;;;;;;18.14;71.49;99811.38;125704;1093;22770;-59
2021/07/25 04:53:59;;;;;;;24.80;14.30;;;;;;;18.24;71.24;99804.76;125874;1093;22767;-60
2021/07/25 04:56:33;;;;;;;25.15;13.40;;;;;;;18.35;71.46;99809.44;125785;1093;22828;-62
2021/07/25 04:59:07;;;;;;;23.60;14.65;;;;;;;18.45;71.53;99814.14;125701;1093;22803;-60
2021/07/25 05:01:44;;;;;;;25.40;14.65;;;;;;;18.55;71.81;99812.40;125674;1093;22806;-60
2021/07/25 05:04:20;;;;;;;23.27;15.00;;;;;;;18.65;71.56;99800.63;125703;1092;22794;-61
2021/07/25 05:06:53;;;;;;;25.00;14.20;;;;;;;18.74;71.22;99805.84;125770;1093;28397;-60
2021/07/25 05:09:26;;;;;;;27.40;13.87;;;;;;;18.80;71.51;99803.66;125802;1093;22827;-62
2021/07/25 05:12:02;;;;;;;27.65;15.20;;;;;;;18.89;71.04;99800.39;125872;1093;27150;-60
2021/07/25 05:14:42;;;;;;;25.20;13.75;;;;;;;18.95;71.51;99801.80;125858;1093;28362;-60
2021/07/25 05:17:21;;;;;;;25.90;15.55;;;;;;;19.00;71.43;99814.27;125684;1093;22767;-59
2021/07/25 05:20:02;;;;;;;25.45;14.45;;;;;;;19.03;71.42;99802.64;125695;1093;24524;-58
2021/07/25 05:22:42;;;;;;;24.90;13.35;;;;;;;19.09;71.18;99802.50;125690;1092;22777;-60
2021/07/25 05:25:16;;;;;;;28.70;15.10;;;;;;;19.14;71.28;99798.80;125679;1093;27179;-59
2021/07/25 05:27:52;;;;;;;28.30;14.60;;;;;;;19.20;71.57;99805.83;125697;1093;25874;-58
2021/07/25 05:30:25;;;;;;;24.67;13.27;;;;;;;19.26;70.92;99808.55;125854;1093;22839;-68
2021/07/25 05:32:56;;;;;;;26.50;14.00;;;;;;;19.32;71.24;99809.95;125983;1093;22806;-69
2021/07/25 05:35:28;;;;;;;26.60;15.93;;;;;;;19.39;71.51;99813.44;126276;1093;22867;-61
2021/07/25 05:38:00;;;;;;;27.87;16.10;;;;;;;19.44;71.42;99813.30;125652;1093;23209;-62
2021/07/25 05:40:31;;;;;;;27.68;15.05;;;;;;;19.53;71.62;99815.66;126017;1093;26313;-63
2021/07/25 05:43:03;;;;;;;27.93;16.10;;;;;;;19.63;71.48;99815.93;125801;1093;23279;-59
2021/07/25 05:45:35;;;;;;;27.93;15.30;;;;;;;19.74;71.58;99821.33;125644;1093;25954;-61
2021/07/25 05:48:08;;;;;;;25.77;15.20;;;;;;;19.88;71.61;99831.27;125658;1093;22771;-60
2021/07/25 05:50:40;;;;;;;26.87;15.17;;;;;;;19.99;71.46;99833.80;125977;1093;26265;-61
2021/07/25 05:53:11;;;;;;;23.73;14.67;;;;;;;20.11;71.75;99832.22;125812;1093;22775;-59
2021/07/25 05:55:44;;;;;;;26.73;17.00;;;;;;;20.25;71.46;99849.92;126132;1093;22904;-61
2021/07/25 05:58:15;;;;;;;26.15;15.20;;;;;;;20.36;71.71;99838.29;125634;1091;22797;-61
2021/07/25 06:00:47;;;;;;;24.87;14.70;;;;;;;20.47;71.27;99852.91;125793;1093;27214;-61
2021/07/25 06:03:19;;;;;;;26.80;16.03;;;;;;;20.60;71.32;99854.88;125517;1093;22776;-61
2021/07/25 06:05:50;;;;;;;27.63;14.75;;;;;;;20.74;70.98;99850.61;125664;1093;22797;-60
2021/07/25 06:08:22;;;;;;;24.90;13.03;;;;;;;20.87;70.93;99851.27;125596;1093;22824;-61
2021/07/25 06:10:54;;;;;;;26.60;14.30;;;;;;;20.98;70.75;99850.19;125711;1093;26722;-61
2021/07/25 06:13:25;;;;;;;27.00;15.23;;;;;;;21.09;70.32;99852.70;125569;1093;23534;-60
2021/07/25 06:18:48;;;;;;;25.05;14.93;;;;;;;21.28;70.45;99853.16;124606;1095;25601;-76
2021/07/25 06:21:19;;;;;;;23.05;14.08;;;;;;;21.34;70.02;99850.14;125730;1095;23228;-74
2021/07/25 06:23:52;;;;;;;27.95;14.53;;;;;;;21.34;69.97;99853.74;125893;1095;22805;-75
2021/07/25 06:26:24;;;;;;;27.88;14.00;;;;;;;21.30;69.68;99859.03;125704;1097;22813;-75
2021/07/25 06:28:55;;;;;;;27.10;14.60;;;;;;;21.30;69.58;99861.11;125805;1096;22786;-76
2021/07/25 06:31:27;;;;;;;27.38;14.73;;;;;;;21.36;69.57;99861.69;125770;1096;22920;-75
2021/07/25 06:33:58;;;;;;;26.83;14.30;;;;;;;21.41;69.68;99867.22;126147;1096;75120;-68
2021/07/25 06:36:31;;;;;;;24.75;14.38;;;;;;;21.45;69.58;99859.09;125477;1094;22778;-61
2021/07/25 06:39:03;;;;;;;27.98;16.25;;;;;;;21.52;69.47;99872.53;129324;1095;22588;-62
2021/07/25 06:41:34;;;;;;;24.15;13.30;;;;;;;21.58;69.43;99864.59;129386;1095;22588;-62
2021/07/25 06:44:06;;;;;;;23.98;13.30;;;;;;;21.68;69.07;99868.39;129319;1096;23551;-62
2021/07/25 06:46:38;;;;;;;24.55;13.48;;;;;;;21.76;69.29;99868.42;129374;1095;22553;-61
2021/07/25 06:49:09;;;;;;;22.50;13.35;;;;;;;21.83;69.08;99872.64;129341;1096;22563;-62
2021/07/25 06:51:40;;;;;;;24.80;14.00;;;;;;;21.88;68.91;99880.20;129381;1095;23224;-62
2021/07/25 06:54:12;;;;;;;24.88;12.83;;;;;;;21.92;68.72;99878.52;129352;1096;23417;-62
2021/07/25 06:56:43;;;;;;;24.40;13.60;;;;;;;21.99;68.52;99882.69;129418;1096;22569;-62
2021/07/25 06:59:15;;;;;;;25.05;14.68;;;;;;;22.07;68.77;99872.84;129338;1096;22572;-62
2021/07/25 07:01:46;;;;;;;28.65;14.13;;;;;;;22.13;68.42;99867.73;129385;1096;22583;-61
2021/07/25 07:04:18;;;;;;;27.90;14.45;;;;;;;22.21;68.44;99873.41;129395;1096;23441;-61
2021/07/25 07:06:51;;;;;;;22.93;13.23;;;;;;;22.31;68.41;99871.50;129384;1096;23747;-59
2021/07/25 07:09:22;;;;;;;23.98;13.98;;;;;;;22.41;68.55;99878.89;129355;1095;22688;-63
2021/07/25 07:11:54;;;;;;;25.23;13.30;;;;;;;22.53;68.10;99882.13;129385;1095;23038;-60
2021/07/25 07:14:26;;;;;;;27.10;13.75;;;;;;;22.68;68.00;99884.22;129392;1095;22528;-61
2021/07/25 07:16:57;;;;;;;24.40;12.93;;;;;;;22.80;67.52;99886.06;129338;1096;22585;-61
2021/07/25 07:19:28;;;;;;;22.45;12.45;;;;;;;22.90;67.51;99878.47;129384;1096;22709;-60
2021/07/25 07:22:00;;;;;;;27.58;13.83;;;;;;;23.00;67.21;99882.23;129381;1096;22523;-60
2021/07/25 07:24:31;;;;;;;22.50;12.10;;;;;;;23.13;66.96;99886.93;129363;1095;23653;-60
2021/07/25 07:27:05;;;;;;;25.08;12.70;;;;;;;23.21;66.47;99876.27;129387;1096;22563;-60
2021/07/25 07:29:36;;;;;;;21.88;12.13;;;;;;;23.29;66.06;99876.98;129413;1096;23118;-61
2021/07/25 07:32:10;;;;;;;21.45;11.35;;;;;;;23.37;65.92;99874.88;129385;1096;23302;-61
2021/07/25 07:34:42;;;;;;;22.65;10.98;;;;;;;23.43;65.31;99874.66;129472;1095;22552;-61
2021/07/25 07:37:13;;;;;;;20.90;11.45;;;;;;;23.49;65.51;99875.20;125895;1096;22874;-60
2021/07/25 07:39:47;;;;;;;22.38;11.90;;;;;;;23.55;65.06;99884.28;125201;1096;22803;-59
2021/07/25 07:42:19;;;;;;;21.93;11.63;;;;;;;23.60;65.00;99889.77;125450;1096;27291;-59
2021/07/25 07:44:51;;;;;;;21.75;11.50;;;;;;;23.66;64.51;99883.84;125425;1096;26242;-61
2021/07/25 07:47:23;;;;;;;20.58;11.38;;;;;;;23.71;64.18;99880.77;125577;1095;22800;-62
2021/07/25 07:49:55;;;;;;;22.98;12.35;;;;;;;23.75;63.89;99881.14;125442;1096;22970;-61
2021/07/25 07:52:27;;;;;;;23.73;12.03;;;;;;;23.79;63.79;99877.88;125731;1096;22774;-61
2021/07/25 07:54:59;;;;;;;20.73;10.05;;;;;;;23.82;63.08;99883.17;125529;1096;23563;-62
2021/07/25 07:57:31;;;;;;;22.45;11.18;;;;;;;23.85;63.28;99892.66;125504;1096;22829;-59
2021/07/25 08:00:02;;;;;;;21.50;10.70;;;;;;;23.89;63.43;99879.52;125411;1096;22907;-60
2021/07/25 08:02:34;;;;;;;22.80;10.70;;;;;;;23.94;63.41;99886.34;125423;1096;22783;-59
2021/07/25 08:05:08;;;;;;;21.73;10.77;;;;;;;23.97;62.89;99893.72;125367;1096;22804;-59
2021/07/25 08:07:39;;;;;;;21.28;10.25;;;;;;;24.00;62.70;99892.56;125644;1096;22773;-60
2021/07/25 08:10:12;;;;;;;25.90;11.53;;;;;;;24.03;62.13;99897.09;125178;1096;27015;-60
2021/07/25 08:12:44;;;;;;;19.00;8.65;;;;;;;24.04;62.28;99896.53;125544;1096;22803;-60
2021/07/25 08:15:17;;;;;;;18.30;9.95;;;;;;;24.09;62.07;99894.80;125248;1096;26031;-59
2021/07/25 08:17:49;;;;;;;20.80;10.73;;;;;;;24.12;61.82;99902.20;125122;1096;23507;-59
2021/07/25 08:20:20;;;;;;;18.35;9.65;;;;;;;24.13;61.26;99897.26;125344;1096;22737;-59
2021/07/25 08:22:51;;;;;;;18.90;10.25;;;;;;;24.13;61.38;99891.55;125254;1096;22868;-59
2021/07/25 08:25:24;;;;;;;25.90;9.73;;;;;;;24.15;61.22;99897.44;125250;1096;22779;-60
2021/07/25 08:27:55;;;;;;;19.68;9.65;;;;;;;24.16;61.21;99898.93;125325;1095;29032;-60
2021/07/25 08:30:29;;;;;;;23.15;10.23;;;;;;;24.16;60.95;99896.84;125394;1096;22823;-60
2021/07/25 08:33:03;;;;;;;18.60;9.00;;;;;;;24.15;60.64;99903.88;125239;1096;24473;-60
2021/07/25 08:35:35;;;;;;;19.03;8.70;;;;;;;24.15;60.74;99901.02;125222;1096;22883;-60
2021/07/25 08:38:08;;;;;;;19.23;9.30;;;;;;;24.17;60.47;99909.02;125251;1096;25998;-62
2021/07/25 08:40:40;;;;;;;19.35;8.55;;;;;;;24.16;60.21;99905.40;125260;1096;22964;-58
2021/07/25 08:43:13;;;;;;;16.80;7.43;;;;;;;24.17;60.14;99909.75;125396;1095;28115;-59
2021/07/25 08:45:46;;;;;;;16.65;8.50;;;;;;;24.16;59.86;99908.25;125279;1096;24178;-60
2021/07/25 08:48:22;;;;;;;17.78;8.33;;;;;;;24.19;59.94;99912.04;125305;1096;26392;-59
2021/07/25 08:51:03;;;;;;;20.15;8.63;;;;;;;24.19;59.71;99915.63;125562;1096;22829;-60
2021/07/25 08:53:42;;;;;;;17.25;8.38;;;;;;;24.18;59.51;99914.13;125317;1096;22832;-59
2021/07/25 08:56:14;;;;;;;17.10;8.75;;;;;;;24.19;59.53;99912.77;125352;1095;22762;-61
2021/07/25 08:58:48;;;;;;;17.08;7.70;;;;;;;24.19;58.88;99912.04;125893;1096;26252;-62
2021/07/25 09:01:21;;;;;;;19.03;8.30;;;;;;;24.19;59.15;99918.48;125273;1095;22844;-60
2021/07/25 09:03:52;;;;;;;17.15;7.85;;;;;;;24.21;59.09;99915.80;125596;1096;22775;-61
2021/07/25 09:06:25;;;;;;;16.37;7.83;;;;;;;24.19;59.02;99915.63;125397;1096;22780;-61
2021/07/25 09:08:58;;;;;;;18.03;7.35;;;;;;;24.21;58.82;99921.50;125582;1096;22797;-60
2021/07/25 09:11:30;;;;;;;19.73;8.40;;;;;;;24.22;58.83;99917.33;125316;1096;22810;-60
2021/07/25 09:14:01;;;;;;;16.15;7.25;;;;;;;24.24;58.41;99922.45;125467;1096;22780;-60
2021/07/25 09:16:35;;;;;;;16.58;7.50;;;;;;;24.27;58.61;99927.73;125152;1095;22813;-62
2021/07/25 09:19:07;;;;;;;15.75;7.20;;;;;;;24.30;58.80;99928.67;125346;1096;22809;-61
2021/07/25 09:21:46;;;;;;;16.90;7.95;;;;;;;24.35;58.47;99924.84;125329;1096;26531;-59
2021/07/25 09:24:28;;;;;;;15.57;7.80;;;;;;;24.40;58.12;99929.53;125320;1096;28375;-64
2021/07/25 09:27:02;;;;;;;13.80;6.60;;;;;;;24.44;58.45;99930.64;125335;1096;22882;-62
2021/07/25 09:29:37;;;;;;;14.45;7.45;;;;;;;24.48;58.03;99919.58;125468;1096;25907;-61
2021/07/25 09:32:17;;;;;;;17.27;8.47;;;;;;;24.50;58.33;99925.45;125185;1096;22855;-61
2021/07/25 09:34:50;;;;;;;19.45;8.33;;;;;;;24.57;58.55;99923.88;125276;1096;22847;-59
2021/07/25 09:37:22;;;;;;;17.83;8.60;;;;;;;24.59;58.05;99924.81;125191;1096;22785;-61
2021/07/25 09:39:57;;;;;;;17.95;8.70;;;;;;;24.58;58.11;99920.44;125287;1096;22774;-62
2021/07/25 09:42:32;;;;;;;17.83;9.33;;;;;;;24.60;58.22;99917.75;125524;1096;22806;-60
2021/07/25 09:45:05;;;;;;;15.90;8.45;;;;;;;24.56;57.65;99920.26;125274;1096;26366;-61
2021/07/25 09:47:39;;;;;;;19.95;9.63;;;;;;;24.56;58.02;99922.38;125388;1095;23332;-60
2021/07/25 09:50:11;;;;;;;21.68;10.20;;;;;;;24.56;58.44;99923.11;125583;1096;22767;-61
2021/07/25 09:52:43;;;;;;;17.83;8.98;;;;;;;24.52;58.05;99928.48;125396;1096;23563;-59
2021/07/25 09:55:14;;;;;;;22.07;8.53;;;;;;;24.52;58.39;99928.48;125225;1095;22792;-59
2021/07/25 09:57:56;;;;;;;19.58;9.28;;;;;;;24.52;58.70;99927.75;125287;1096;24493;-59
2021/07/25 10:00:40;;;;;;;14.75;7.68;;;;;;;24.50;58.31;99928.30;125293;1097;26967;-59
2021/07/25 10:06:26;;;;;;;17.85;8.05;;;;;;;24.48;58.33;99933.84;125937;1092;26331;-60
2021/07/25 10:09:15;;;;;;;17.55;8.45;;;;;;;24.47;58.60;99929.49;125802;1093;26242;-60
2021/07/25 10:11:49;;;;;;;19.10;7.95;;;;;;;24.44;58.44;99927.03;125735;1093;22791;-60
2021/07/25 10:14:22;;;;;;;15.00;8.08;;;;;;;24.42;58.73;99935.41;125968;1093;22809;-62
2021/07/25 10:16:56;;;;;;;16.55;7.90;;;;;;;24.41;59.15;99934.68;125838;1093;27295;-60
2021/07/25 10:19:33;;;;;;;16.93;7.68;;;;;;;24.41;59.81;99936.77;125874;1093;22758;-61
2021/07/25 10:22:09;;;;;;;18.93;9.08;;;;;;;24.40;60.14;99930.30;125878;1093;26822;-61
2021/07/25 10:24:45;;;;;;;13.65;6.93;;;;;;;24.38;59.25;99938.69;125950;1093;22767;-60
2021/07/25 10:27:19;;;;;;;15.50;6.50;;;;;;;24.34;58.95;99935.48;125870;1093;22772;-60
2021/07/25 10:29:53;;;;;;;12.20;4.93;;;;;;;24.32;58.45;99932.45;125790;1093;26287;-60
2021/07/25 10:32:25;;;;;;;12.27;4.50;;;;;;;24.28;58.05;99926.41;125904;1093;22844;-60
2021/07/25 10:34:58;;;;;;;13.03;3.80;;;;;;;24.28;57.93;99934.97;125802;1093;22805;-59
2021/07/25 10:37:30;;;;;;;11.83;4.38;;;;;;;24.28;57.94;99926.41;125903;1093;22794;-61
2021/07/25 10:40:04;;;;;;;12.78;3.90;;;;;;;24.27;57.43;99930.58;125818;1093;24468;-61
2021/07/25 10:42:40;;;;;;;9.75;3.70;;;;;;;24.25;57.57;99927.56;126186;1093;22867;-60
2021/07/25 10:45:13;;;;;;;15.40;4.40;;;;;;;24.28;57.23;99920.70;125771;1093;22886;-59
2021/07/25 10:47:47;;;;;;;10.93;4.00;;;;;;;24.31;57.75;99922.41;125780;1092;24679;-60
2021/07/25 10:50:23;;;;;;;10.13;3.33;;;;;;;24.34;57.10;99924.08;125838;1093;22779;-60
2021/07/25 10:53:04;;;;;;;11.90;4.05;;;;;;;24.36;56.61;99932.80;125845;1093;22797;-59
2021/07/25 10:55:52;;;;;;;11.43;3.55;;;;;;;24.38;56.30;99930.13;125831;1093;22800;-60
2021/07/25 10:58:25;;;;;;;9.33;3.73;;;;;;;24.38;56.05;99915.09;125864;1093;22799;-60
2021/07/25 11:01:00;;;;;;;15.15;4.03;;;;;;;24.40;55.94;99918.89;125965;1093;25593;-59
2021/07/25 11:03:44;;;;;;;9.83;3.35;;;;;;;24.42;55.23;99916.20;126116;1093;26242;-60
2021/07/25 11:06:20;;;;;;;12.08;4.00;;;;;;;24.42;55.19;99913.35;125852;1093;24429;-61
2021/07/25 11:08:52;;;;;;;12.20;3.83;;;;;;;24.44;55.35;99910.67;125919;1092;22749;-58
2021/07/25 11:11:55;;;;;;;12.60;3.55;;;;;;;24.46;55.26;99907.23;125838;1092;25841;-61
2021/07/25 11:17:54;;;;;;;16.17;4.40;;;;;;;24.44;54.57;99916.38;125992;1093;26894;-61
2021/07/25 11:20:39;;;;;;;9.58;3.05;;;;;;;24.44;54.46;99910.67;125885;1092;22798;-61
2021/07/25 11:23:33;;;;;;;12.13;3.40;;;;;;;24.47;54.93;99908.75;125905;1093;22784;-62
2021/07/25 11:26:37;;;;;;;11.15;3.28;;;;;;;24.47;54.51;99905.90;125788;1093;22822;-61
2021/07/25 11:29:41;;;;;;;8.43;3.58;;;;;;;24.46;54.15;99910.84;125840;1093;22794;-61
2021/07/25 11:32:42;;;;;;;10.13;3.70;;;;;;;24.49;54.23;99909.69;125756;1093;22924;-61
2021/07/25 11:35:18;;;;;;;9.73;3.80;;;;;;;24.48;54.25;99907.42;125636;1093;22808;-61
2021/07/25 11:37:50;;;;;;;9.83;3.73;;;;;;;24.49;54.12;99906.83;125864;1092;26216;-61
2021/07/25 11:40:27;;;;;;;11.48;3.25;;;;;;;24.51;54.29;99906.24;125779;1093;22771;-61
2021/07/25 11:42:58;;;;;;;10.60;3.85;;;;;;;24.51;54.17;99909.86;125787;1093;22778;-60
2021/07/25 11:45:31;;;;;;;13.15;4.38;;;;;;;24.52;54.31;99905.65;125620;1093;22923;-60
2021/07/25 11:48:21;;;;;;;13.35;4.23;;;;;;;24.53;54.47;99903.56;125872;1091;25874;-58
2021/07/25 11:50:55;;;;;;;11.60;4.88;;;;;;;24.55;54.33;99906.58;125910;1093;26713;-60